This is the latest recevied weather packets stored in our database for station/object TG9SRP-22. If no packets are shown the sender has not sent any weather packets the latest 10 day(s).
| Time | Temp. | Humidity | Pressure | Rain* | Wind** | Luminosity | Snow |
|---|---|---|---|---|---|---|---|
| 1777916337 | 23.33° C | 61% | 1015 hPa | 0 mm | - | - | - |
| 1777915736 | 22.22° C | 61% | 1016 hPa | 0 mm | - | - | - |
| 1777915135 | 23.33° C | 61% | 1016 hPa | 0 mm | - | - | - |
| 1777914535 | 22.22° C | 61% | 1016 hPa | 0 mm | - | - | - |
| 1777913934 | 23.33° C | 61% | 1016 hPa | 0 mm | - | - | - |
| 1777913334 | 22.22° C | 64% | 1016 hPa | 0 mm | - | - | - |
| 1777912733 | 20.56° C | 67% | 1016 hPa | 0 mm | - | - | - |
| 1777912132 | 20.56° C | 67% | 1016 hPa | 0 mm | - | - | - |
| 1777911532 | 21.11° C | 65% | 1016 hPa | 0 mm | - | - | - |
| 1777910931 | 22.22° C | 64% | 1016 hPa | 0 mm | - | - | - |
| 1777909730 | 17.78° C | 68% | 1016 hPa | 0 mm | - | - | - |
| 1777909130 | 17.78° C | 68% | 1016 hPa | 0 mm | - | - | - |
| 1777908529 | 18.89° C | 68% | 1017 hPa | 0 mm | - | - | - |
| 1777907928 | 18.89° C | 68% | 1017 hPa | 0 mm | - | - | - |
| 1777907328 | 17.78° C | 68% | 1017 hPa | 0 mm | - | - | - |
| 1777906727 | 18.89° C | 68% | 1016 hPa | 0 mm | - | - | - |
| 1777906126 | 20° C | 68% | 1016 hPa | 0 mm | - | - | - |
| 1777905526 | 18.33° C | 68% | 1016 hPa | 0 mm | - | - | - |
| 1777904925 | 19.44° C | 68% | 1016 hPa | 0 mm | - | - | - |
| 1777904325 | 16.11° C | 84% | 1016 hPa | 0 mm | - | - | - |
| 1777903724 | 16.11° C | 79% | 1016 hPa | 0 mm | - | - | - |
| 1777903124 | 17.22° C | 77% | 1017 hPa | 0 mm | - | - | - |
| 1777902523 | 18.33° C | 77% | 1017 hPa | 0 mm | - | - | - |
| 1777901922 | 16.11° C | 77% | 1017 hPa | 0 mm | - | - | - |
| 1777901322 | 16.67° C | 77% | 1017 hPa | 0 mm | - | - | - |
* Rain latest hour (hover to see other rain measurements)
** Current wind speed in m/s (hover to see current wind gust speed)